Share

Perry, FL

Perry (K40J) Elev 43 ft | 30.07 °N, 83.57 °W | Change Station
Active Advisory: Flood WarningAreal Flood Watch

Current weather conditions updated 12 minutes ago

Overcast
Overcast
64 °F
Feels Like 64 °F
N
9
Wind Variable Wind from ENE
Gusts 16 mph
Sunrise 7:05 AM
Sunset 8:02 PM
Moon Waning Gibbous

Tomorrow is forecast to be nearly the same temperature as today. Periods of heavy rain.

Pressure 30.21 in
Visibility 10.0 miles
Clouds Scattered Clouds 7000 ft
Overcast 8000 ft
Dew Point 59 °F
Humidity 83%
Rainfall 0.00 in
Snow Depth Not available.
UV 0 out of 16
Pollen 9.80 out of 12
Air Quality Not available.
Flu Activity Local Activity
METAR K40J 180015Z AUTO 06008G14KT 005V085 10SM SCT070 OVC080 18/15 A3021 RMK AO2 LTG DSNT W

More Conditions Fewer Conditions

Pressure 30.21 in
Visibility 10.0 miles
Clouds Scattered Clouds 7000 ft
Overcast 8000 ft
Dew Point 59 °F
Humidity 83%
Rainfall 0.00 in
Snow Depth Not available.
UV 0 out of 16
Pollen 9.80 out of 12
Air Quality Not available.
Flu Activity Local Activity
METAR K40J 180015Z AUTO 06008G14KT 005V085 10SM SCT070 OVC080 18/15 A3021 RMK AO2 LTG DSNT W

More Conditions Fewer Conditions

10-Day Forecast

Almanac

Astronomy

Apr. 17, 2014 Rise Set
Actual Time 7:05 AM EDT 8:02 PM EDT
Civil Twilight 6:40 AM EDT 8:27 PM EDT
Nautical Twilight 6:11 AM EDT 8:56 PM EDT
Astronomical Twilight 5:41 AM EDT 9:26 PM EDT
Moon 10:38 PM EDT (4/17) 8:43 AM EDT (4/17)
Length of Visible Light 13h 46m
Length of Day
12h 57m
Tomorrow will be 1m 43s longer.
Waning Gibbous, 92% of the Moon is Illuminated
Today
Waning Gibbous
Apr 22
Last Quarter
Apr 29
New
May 6
First Quarter
May 14
Full

Today's Extremes

State Highs State Lows

Community

  • Morning Light
    Morning Light
  • New Day
    New Day
  • Lake Michigan Sunrise
    Lake Michigan Sunrise
  • sunset from izmir, narlıdere
    sunset from izmir, narlıdere
  • oregon cherry
    oregon cherry

WunderPhotos

Upload Photos

1,702,187 photos uploaded!

WunderBlogs® & News

Nearby

Snow Depth

Station Depth Elevation
No new snow has been reported.

Coastal Water Temperatures

Place Temperature
Apalachicola, FL 64.9 °F
Panama City, FL 69.1 °F

Earthquake Activity

City Distance Mag. Time & Date
No recent earthquake activity has been reported nearby.
Minimum magnitude displayed is 2.5.

Nearby Weather Stations

Station Location Temp. Dew Point Humidity Wind Precip. Elev Updated Type
MARITIME , Salem, FL 67 °F 59 °F 75% ENE  at  16 mph 0.00 in / hr 6 ft 8:00 PM EDT MADIS

Show More Stations Show Fewer Stations

What do you think?

We're not finished. Please let us know what you like, what you don't like, and what you are still missing.